Terminal Aerodrome Forecast
Issued by NWS Caribou, ME

Home | Current Version | Previous Version | Text Only | Print | Product List | Glossary On
Versions: 1 2 3 4 5 6 7 8 9 10 11 12 13
000
FTUS41 KCAR 182300
TAFCAR
TAF
KCAR 182321Z 1900/1924 16004KT P6SM BKN120 OVC200
     FM190700 19003KT P6SM -SHSN SCT025 OVC050
     FM190900 19003KT 2SM -SHSN OVC020
     FM191600 32008G15KT 5SM -SHSN OVC025
     FM191800 32016G26KT P6SM VCSH BKN025 OVC040=

USA.gov is the U.S. government's official web portal to all federal, state and local government web resources and services.